Time;durP1;ratioP1;P1;durP2;ratioP2;P2;SDS_P1;SDS_P2;PMS_P1;PMS_P2;Temp;Humidity;BMP_temperature;BMP_pressure;BME280_temperature;BME280_humidity;BME280_pressure;Samples;Min_cycle;Max_cycle;Signal;HPM_P1;HPM_P2
2020/12/21 09:52:13;;;;;;;10.77;7.00;;;;;;;6.85;100.00;96809.38;5079247;28;20825;-86
2020/12/21 09:54:39;;;;;;;17.13;8.37;;;;;;;7.00;100.00;96814.31;5081800;28;20432;-86
2020/12/21 09:57:06;;;;;;;11.20;7.10;;;;;;;7.07;99.80;96811.09;5081371;28;20441;-87
2020/12/21 09:59:32;;;;;;;12.20;8.40;;;;;;;7.04;100.00;96812.09;5079381;28;20482;-86
2020/12/21 10:01:59;;;;;;;8.37;6.40;;;;;;;7.16;99.43;96804.63;5080286;28;20500;-87
2020/12/21 10:04:25;;;;;;;11.20;8.00;;;;;;;7.20;99.28;96813.13;5081578;28;20456;-88
2020/12/21 10:06:52;;;;;;;12.93;6.70;;;;;;;7.27;98.73;96810.59;5082582;28;20888;-87
2020/12/21 10:09:19;;;;;;;12.17;7.90;;;;;;;7.28;98.59;96805.94;5081111;28;20862;-87
2020/12/21 10:11:45;;;;;;;14.23;7.90;;;;;;;7.28;98.36;96804.00;5079462;28;20469;-88
2020/12/21 10:14:12;;;;;;;12.80;7.10;;;;;;;7.32;97.91;96795.66;5080338;28;20445;-87
2020/12/21 10:16:38;;;;;;;14.43;7.20;;;;;;;7.24;97.51;96794.78;5081155;28;20454;-87
2020/12/21 10:19:05;;;;;;;10.60;7.13;;;;;;;7.25;97.88;96793.53;5080805;28;20841;-88
2020/12/21 10:21:31;;;;;;;16.40;7.63;;;;;;;7.30;97.72;96793.47;5080223;28;20465;-87
2020/12/21 10:23:58;;;;;;;10.60;6.60;;;;;;;7.26;97.34;96789.63;5080149;28;20444;-88
2020/12/21 10:26:25;;;;;;;16.90;9.53;;;;;;;7.25;97.76;96786.22;5079574;28;20462;-88
2020/12/21 10:28:52;;;;;;;12.37;8.27;;;;;;;7.29;97.73;96770.56;5080626;28;20421;-86
2020/12/21 10:31:18;;;;;;;21.23;8.80;;;;;;;7.32;97.13;96774.91;5081459;28;20440;-86
2020/12/21 10:33:44;;;;;;;17.30;8.60;;;;;;;7.32;97.28;96769.56;5086910;28;20418;-87
2020/12/21 10:36:15;;;;;;;9.90;8.23;;;;;;;7.33;96.83;96773.66;5082490;28;20927;-88
2020/12/21 10:38:42;;;;;;;12.57;8.77;;;;;;;7.38;96.56;96770.19;5081839;28;20404;-89
2020/12/21 10:41:08;;;;;;;10.60;8.90;;;;;;;7.34;96.87;96767.06;5079718;28;20469;-89
2020/12/21 10:43:35;;;;;;;12.80;8.83;;;;;;;7.38;96.39;96764.84;5079697;28;20473;-90
2020/12/21 10:46:02;;;;;;;16.03;9.90;;;;;;;7.36;96.81;96753.16;5078829;28;20528;-88
2020/12/21 10:48:28;;;;;;;13.67;8.83;;;;;;;7.45;96.84;96760.84;5078973;28;20501;-87
2020/12/21 10:50:55;;;;;;;13.93;8.80;;;;;;;7.48;96.41;96754.47;5089992;28;20522;-87
2020/12/21 10:53:22;;;;;;;12.07;8.47;;;;;;;7.49;95.95;96753.94;5101953;28;20460;-88
2020/12/21 10:55:49;;;;;;;8.80;7.67;;;;;;;7.43;95.90;96750.59;5101845;28;20411;-88
2020/12/21 10:58:15;;;;;;;11.67;8.83;;;;;;;7.41;96.20;96750.41;5101960;28;20767;-89
2020/12/21 11:00:42;;;;;;;13.77;7.83;;;;;;;7.47;95.83;96745.66;5100240;28;20496;-88
2020/12/21 11:03:09;;;;;;;13.87;8.70;;;;;;;7.47;96.31;96743.00;5102190;28;20446;-88
2020/12/21 11:05:35;;;;;;;13.53;9.80;;;;;;;7.43;96.35;96747.91;5102598;28;20535;-87
2020/12/21 11:08:01;;;;;;;12.30;9.27;;;;;;;7.42;96.38;96741.09;5102294;28;20436;-88
2020/12/21 11:10:28;;;;;;;14.70;9.27;;;;;;;7.43;96.56;96739.88;5104006;28;20547;-87
2020/12/21 11:12:55;;;;;;;14.83;11.20;;;;;;;7.57;95.85;96723.81;5101544;28;20423;-87
2020/12/21 11:15:21;;;;;;;9.87;8.27;;;;;;;7.51;95.58;96732.69;5100977;28;20444;-86
2020/12/21 11:17:48;;;;;;;15.83;7.13;;;;;;;7.46;96.40;96732.75;5101020;28;20403;-88
2020/12/21 11:20:15;;;;;;;9.60;7.50;;;;;;;7.55;96.29;96735.78;5099426;28;20484;-87
2020/12/21 11:22:43;;;;;;;9.10;7.90;;;;;;;7.55;96.65;96741.16;5099685;28;20416;-86
2020/12/21 11:25:10;;;;;;;15.23;9.80;;;;;;;7.61;96.51;96738.41;5099764;28;20451;-88
2020/12/21 11:27:37;;;;;;;11.37;8.77;;;;;;;7.63;97.00;96740.56;5103434;28;20419;-86
2020/12/21 11:30:04;;;;;;;9.03;7.80;;;;;;;7.73;96.73;96738.97;5098403;28;20425;-86
2020/12/21 11:32:30;;;;;;;11.73;8.50;;;;;;;7.74;96.73;96735.03;5100054;28;20945;-88
2020/12/21 11:34:57;;;;;;;17.53;9.30;;;;;;;7.74;96.93;96737.72;5105515;28;20433;-89
2020/12/21 11:37:24;;;;;;;13.43;8.83;;;;;;;7.81;96.85;96742.50;5102713;28;20411;-90
2020/12/21 11:39:50;;;;;;;13.83;9.57;;;;;;;7.84;96.70;96734.13;5102939;28;20494;-89
2020/12/21 11:42:17;;;;;;;11.90;8.80;;;;;;;7.85;95.70;96742.94;5103638;28;20439;-90
2020/12/21 11:44:43;;;;;;;11.63;8.10;;;;;;;7.97;95.55;96744.19;5102316;28;20446;-90
2020/12/21 11:47:10;;;;;;;13.30;8.03;;;;;;;7.95;95.63;96744.00;5110044;28;20408;-85
2020/12/21 11:49:37;;;;;;;11.07;8.70;;;;;;;8.01;95.42;96741.94;5119793;28;20391;-85
2020/12/21 11:52:04;;;;;;;13.40;8.67;;;;;;;8.07;95.61;96740.63;5119070;28;20435;-84
2020/12/21 11:54:31;;;;;;;10.93;7.33;;;;;;;8.08;95.29;96749.41;5119455;28;20492;-84
2020/12/21 11:56:57;;;;;;;10.80;7.93;;;;;;;8.05;95.40;96743.06;5110231;28;20952;-90
2020/12/21 11:59:24;;;;;;;15.97;8.43;;;;;;;8.07;95.91;96742.56;5101343;28;20558;-88
2020/12/21 12:01:55;;;;;;;9.03;6.77;;;;;;;8.08;95.94;96733.28;5100392;28;20478;-89
2020/12/21 12:04:22;;;;;;;14.20;7.67;;;;;;;8.09;96.12;96722.00;5098705;28;20403;-88
2020/12/21 12:06:48;;;;;;;9.87;7.10;;;;;;;8.29;95.63;96720.72;5100019;28;20427;-89
2020/12/21 12:09:15;;;;;;;8.03;6.00;;;;;;;8.41;94.87;96721.25;5103323;28;20479;-90
2020/12/21 12:11:42;;;;;;;11.70;6.83;;;;;;;8.46;94.64;96717.72;5103159;28;20449;-91
2020/12/21 12:14:09;;;;;;;7.43;5.70;;;;;;;8.52;93.93;96707.63;5102016;28;20433;-88
2020/12/21 12:16:35;;;;;;;6.73;4.93;;;;;;;8.60;93.21;96706.47;5102626;28;20821;-88
2020/12/21 12:19:01;;;;;;;6.67;4.93;;;;;;;8.56;93.39;96699.94;5103017;28;20436;-89
2020/12/21 12:21:28;;;;;;;11.10;6.07;;;;;;;8.66;93.40;96709.06;5106324;28;20464;-90
2020/12/21 12:23:54;;;;;;;11.17;5.20;;;;;;;8.83;93.07;96711.44;5104780;28;20438;-88
2020/12/21 12:26:21;;;;;;;5.10;4.60;;;;;;;8.79;93.11;96711.00;5103181;28;20444;-88
2020/12/21 12:28:48;;;;;;;8.53;4.97;;;;;;;8.70;93.25;96704.09;5116727;28;20411;-85
2020/12/21 12:31:17;;;;;;;7.50;5.03;;;;;;;8.77;93.57;96687.31;5109675;28;20463;-89
2020/12/21 12:33:44;;;;;;;12.30;4.63;;;;;;;8.73;93.96;96681.53;5097143;28;20437;-89
2020/12/21 12:36:10;;;;;;;7.83;4.53;;;;;;;8.76;94.01;96675.13;5097232;28;20527;-89
2020/12/21 12:38:36;;;;;;;8.53;5.53;;;;;;;8.86;93.73;96678.09;5098807;28;20506;-88
2020/12/21 12:41:03;;;;;;;8.20;4.30;;;;;;;8.95;93.31;96664.94;5100508;28;21031;-88
2020/12/21 12:43:30;;;;;;;6.07;4.73;;;;;;;8.92;93.09;96665.97;5097275;28;20423;-88
2020/12/21 12:45:56;;;;;;;8.37;4.83;;;;;;;9.03;93.35;96662.31;5098345;28;20510;-89
2020/12/21 12:48:23;;;;;;;7.03;4.30;;;;;;;9.07;93.98;96657.34;5098330;28;20448;-89
2020/12/21 12:50:49;;;;;;;6.90;4.00;;;;;;;9.07;93.05;96644.59;5100743;28;20454;-89
2020/12/21 12:53:15;;;;;;;6.10;3.90;;;;;;;9.00;93.47;96637.16;5097838;28;20472;-85
2020/12/21 12:55:42;;;;;;;5.43;4.10;;;;;;;8.98;93.32;96628.91;5097740;28;20380;-85
2020/12/21 12:58:08;;;;;;;6.40;4.30;;;;;;;9.07;93.96;96625.03;5097668;28;20546;-84
2020/12/21 13:00:35;;;;;;;5.17;4.07;;;;;;;9.21;93.43;96620.34;5098650;28;20534;-85
2020/12/21 13:03:02;;;;;;;9.50;5.07;;;;;;;9.16;92.99;96613.81;5099000;28;20399;-84
2020/12/21 13:05:29;;;;;;;5.17;3.87;;;;;;;9.31;92.20;96597.81;5098755;28;20434;-85
2020/12/21 13:07:56;;;;;;;5.40;3.67;;;;;;;9.22;91.27;96579.41;5098832;28;20454;-84
2020/12/21 13:10:23;;;;;;;4.10;3.53;;;;;;;9.01;91.74;96568.66;5100590;28;20442;-85
2020/12/21 13:12:49;;;;;;;7.63;4.50;;;;;;;9.03;92.21;96552.69;5098010;28;20471;-85
2020/12/21 13:15:16;;;;;;;8.70;5.13;;;;;;;9.01;93.09;96549.09;5097437;28;20440;-85
2020/12/21 13:17:44;;;;;;;8.20;5.60;;;;;;;8.95;92.72;96526.97;5099568;28;20423;-85
2020/12/21 13:20:11;;;;;;;8.80;5.00;;;;;;;8.86;92.18;96524.72;5108295;28;20472;-85
2020/12/21 13:22:38;;;;;;;9.50;5.20;;;;;;;8.59;93.37;96521.41;5110913;28;20467;-84
2020/12/21 13:25:08;;;;;;;9.37;5.23;;;;;;;8.58;93.47;96522.66;5109344;28;20508;-85
2020/12/21 13:27:34;;;;;;;7.87;5.40;;;;;;;8.52;93.94;96514.69;5099811;28;20458;-84
2020/12/21 13:30:01;;;;;;;10.00;5.17;;;;;;;8.53;94.14;96524.22;5097062;28;20479;-85
2020/12/21 13:32:27;;;;;;;7.87;5.37;;;;;;;8.53;93.18;96529.59;5096965;28;20992;-84
2020/12/21 13:34:55;;;;;;;7.57;4.93;;;;;;;8.65;94.29;96527.38;5096965;28;20441;-85
2020/12/21 13:37:21;;;;;;;7.23;4.47;;;;;;;8.78;92.87;96524.66;5097656;28;20451;-86
2020/12/21 13:39:47;;;;;;;7.03;4.83;;;;;;;8.90;92.44;96523.16;5112344;28;20517;-87
2020/12/21 13:42:14;;;;;;;8.67;6.37;;;;;;;8.78;93.34;96516.56;5117733;28;20431;-86
2020/12/21 13:44:40;;;;;;;12.87;6.80;;;;;;;8.78;93.24;96526.63;5117607;28;20448;-86
2020/12/21 13:47:06;;;;;;;8.40;7.33;;;;;;;8.75;93.31;96523.00;5106738;28;20396;-84
2020/12/21 13:49:33;;;;;;;13.37;8.97;;;;;;;8.65;94.64;96522.00;5096773;28;20418;-90
2020/12/21 13:52:00;;;;;;;10.97;7.47;;;;;;;8.65;94.67;96518.59;5097793;28;20439;-89
2020/12/21 13:54:27;;;;;;;12.40;7.57;;;;;;;8.59;95.49;96516.75;5096852;28;20415;-88
2020/12/21 13:56:53;;;;;;;8.90;7.40;;;;;;;8.59;95.72;96507.94;5097399;28;20923;-89
2020/12/21 13:59:19;;;;;;;8.53;7.47;;;;;;;8.53;95.95;96504.66;5096356;28;20488;-88
2020/12/21 14:01:46;;;;;;;12.27;8.33;;;;;;;8.49;96.86;96504.25;5096182;28;20550;-88
2020/12/21 14:04:12;;;;;;;14.33;8.80;;;;;;;8.50;97.15;96501.06;5097866;28;20876;-87
2020/12/21 14:06:38;;;;;;;13.53;9.00;;;;;;;8.50;97.48;96501.06;5098615;28;20505;-88
2020/12/21 14:09:06;;;;;;;14.60;8.83;;;;;;;8.54;96.84;96504.16;5096660;28;20476;-89
2020/12/21 14:11:32;;;;;;;12.27;8.17;;;;;;;8.58;96.21;96501.84;5099124;28;20472;-88
2020/12/21 14:13:59;;;;;;;12.33;8.17;;;;;;;8.53;96.51;96502.69;5100362;28;20489;-88
2020/12/21 14:16:26;;;;;;;13.90;9.60;;;;;;;8.48;96.70;96502.84;5100417;28;20486;-89
2020/12/21 14:18:53;;;;;;;12.43;9.33;;;;;;;8.56;96.34;96509.72;5099958;28;20479;-89
2020/12/21 14:21:21;;;;;;;14.20;8.63;;;;;;;8.40;96.70;96513.50;5100697;28;20578;-88
2020/12/21 14:23:48;;;;;;;15.17;9.50;;;;;;;8.38;96.99;96513.31;5100894;28;20438;-88
2020/12/21 14:26:16;;;;;;;12.83;9.50;;;;;;;8.39;96.78;96509.38;5100487;28;20488;-88
2020/12/21 14:28:42;;;;;;;14.03;9.90;;;;;;;8.31;97.21;96505.88;5101618;28;20937;-88
2020/12/21 14:31:08;;;;;;;17.00;10.90;;;;;;;8.34;97.10;96499.44;5103696;28;20452;-88
2020/12/21 14:33:35;;;;;;;14.67;9.07;;;;;;;8.27;97.09;96486.63;5103649;28;20451;-88
2020/12/21 14:36:01;;;;;;;15.57;8.90;;;;;;;8.33;96.79;96483.84;5107084;28;20403;-88
2020/12/21 14:38:28;;;;;;;14.30;7.93;;;;;;;8.31;96.29;96481.69;5109288;28;20430;-88
2020/12/21 14:40:54;;;;;;;9.60;7.23;;;;;;;8.31;95.68;96478.25;5109914;28;20499;-87
2020/12/21 14:43:21;;;;;;;7.83;6.97;;;;;;;8.31;95.36;96473.59;5118549;28;20495;-87
2020/12/21 14:45:48;;;;;;;12.70;7.13;;;;;;;8.28;95.30;96473.94;5111164;28;20472;-84
2020/12/21 14:48:14;;;;;;;12.20;7.33;;;;;;;8.24;95.83;96471.53;5120656;28;20426;-85
2020/12/21 14:50:40;;;;;;;13.40;7.47;;;;;;;8.30;95.49;96464.09;5119985;28;20439;-88
2020/12/21 14:53:07;;;;;;;12.00;7.53;;;;;;;8.25;95.55;96466.88;5120525;28;20415;-85
2020/12/21 14:55:33;;;;;;;10.73;7.20;;;;;;;8.23;95.71;96453.97;5108865;28;20392;-88
2020/12/21 14:57:59;;;;;;;11.90;8.03;;;;;;;8.21;95.65;96456.44;5100921;28;20789;-88
2020/12/21 15:00:27;;;;;;;12.33;7.47;;;;;;;8.18;95.65;96454.81;5100058;28;20880;-89
2020/12/21 15:02:53;;;;;;;10.20;7.03;;;;;;;8.15;95.69;96460.50;5100021;28;20471;-88
2020/12/21 15:05:20;;;;;;;12.90;7.50;;;;;;;8.16;95.67;96465.34;5100245;28;20949;-89
2020/12/21 15:07:46;;;;;;;9.60;7.03;;;;;;;8.14;96.11;96467.84;5100261;28;20449;-88
2020/12/21 15:10:12;;;;;;;11.43;7.90;;;;;;;8.16;96.17;96464.63;5098344;28;20484;-89
2020/12/21 15:12:39;;;;;;;9.53;7.30;;;;;;;8.12;96.43;96464.94;5098946;28;20535;-89
2020/12/21 15:15:07;;;;;;;10.80;8.33;;;;;;;8.25;96.64;96462.22;5099697;28;20477;-89
2020/12/21 15:17:34;;;;;;;11.33;8.03;;;;;;;8.20;96.25;96473.09;5105547;28;20452;-88
2020/12/21 15:20:01;;;;;;;9.67;7.60;;;;;;;8.20;96.59;96468.47;5098786;28;20538;-89
2020/12/21 15:22:27;;;;;;;7.20;6.47;;;;;;;8.37;95.51;96465.41;5102053;28;20480;-88
2020/12/21 15:24:54;;;;;;;9.43;6.90;;;;;;;8.35;95.13;96457.88;5099670;28;20441;-89
2020/12/21 15:27:21;;;;;;;10.03;6.47;;;;;;;8.42;95.03;96453.84;5101175;28;20513;-88
2020/12/21 15:29:47;;;;;;;8.80;6.53;;;;;;;8.42;94.13;96461.91;5100053;28;21018;-88
2020/12/21 15:32:14;;;;;;;9.83;7.03;;;;;;;8.27;94.99;96457.03;5100261;28;20798;-89
2020/12/21 15:34:41;;;;;;;9.27;6.37;;;;;;;8.26;95.20;96463.69;5101891;28;20424;-89
2020/12/21 15:37:07;;;;;;;11.70;7.13;;;;;;;8.20;95.86;96449.66;5100758;28;20448;-89
2020/12/21 15:39:34;;;;;;;9.43;6.90;;;;;;;8.14;95.90;96446.34;5098780;28;20455;-86
2020/12/21 15:42:00;;;;;;;8.60;6.30;;;;;;;8.20;95.75;96436.22;5098622;28;20611;-86
2020/12/21 15:44:27;;;;;;;9.90;6.63;;;;;;;8.24;95.50;96433.19;5099656;28;20441;-86
2020/12/21 15:46:54;;;;;;;10.43;6.47;;;;;;;8.23;95.12;96432.47;5106768;28;20451;-85
2020/12/21 15:49:20;;;;;;;10.50;6.00;;;;;;;8.31;94.76;96433.28;5099481;28;20453;-86
2020/12/21 15:51:47;;;;;;;12.63;6.40;;;;;;;8.23;94.41;96419.03;5096750;28;20447;-86
2020/12/21 15:54:14;;;;;;;5.67;4.80;;;;;;;8.31;94.41;96411.78;5098200;28;20445;-85
2020/12/21 15:56:40;;;;;;;8.33;5.77;;;;;;;8.33;93.56;96422.72;5098604;28;20414;-86
2020/12/21 15:59:07;;;;;;;10.63;6.13;;;;;;;8.28;93.35;96415.50;5098136;28;20920;-86
2020/12/21 16:01:35;;;;;;;9.40;5.80;;;;;;;8.28;93.23;96412.81;5096832;28;20469;-87
2020/12/21 16:04:02;;;;;;;8.07;6.23;;;;;;;8.22;92.93;96403.41;5096639;28;20440;-86
2020/12/21 16:06:28;;;;;;;8.07;5.80;;;;;;;8.25;92.65;96397.72;5097322;28;20419;-86
2020/12/21 16:08:55;;;;;;;11.57;7.10;;;;;;;8.29;92.48;96402.81;5096849;28;20411;-86
2020/12/21 16:11:22;;;;;;;9.57;6.57;;;;;;;8.30;91.88;96402.25;5096873;28;20453;-86
2020/12/21 16:13:48;;;;;;;8.27;6.80;;;;;;;8.31;91.57;96400.31;5096666;28;20466;-86
2020/12/21 16:16:15;;;;;;;9.67;6.93;;;;;;;8.35;90.97;96395.34;5097045;28;20524;-85
2020/12/21 16:18:41;;;;;;;11.30;8.20;;;;;;;8.38;90.71;96386.94;5097735;28;20421;-86
2020/12/21 16:21:08;;;;;;;8.43;6.70;;;;;;;8.46;90.53;96387.00;5097651;28;20489;-87
2020/12/21 16:23:34;;;;;;;8.40;5.57;;;;;;;8.48;90.12;96390.63;5096667;28;20421;-85
2020/12/21 16:26:01;;;;;;;10.90;6.80;;;;;;;8.49;89.94;96386.66;5100507;28;20440;-86
2020/12/21 16:28:28;;;;;;;8.43;6.13;;;;;;;8.43;90.18;96388.78;5100903;28;20448;-85
2020/12/21 16:30:55;;;;;;;10.53;8.20;;;;;;;8.54;89.64;96385.84;5097336;28;20852;-86
2020/12/21 16:33:21;;;;;;;10.57;6.17;;;;;;;8.45;89.60;96380.19;5097330;28;20430;-86
2020/12/21 16:35:52;;;;;;;9.67;6.50;;;;;;;8.48;89.00;96374.50;5099454;28;20445;-87
2020/12/21 16:38:19;;;;;;;9.73;7.77;;;;;;;8.44;89.42;96365.28;5100401;28;20407;-86
2020/12/21 16:40:45;;;;;;;9.80;7.13;;;;;;;8.41;89.66;96360.97;5100148;28;20473;-87
2020/12/21 16:43:12;;;;;;;9.03;7.27;;;;;;;8.54;89.00;96363.59;5100273;28;20529;-87
2020/12/21 16:45:39;;;;;;;13.90;7.67;;;;;;;8.53;89.71;96360.19;5100611;28;20448;-86
2020/12/21 16:48:05;;;;;;;10.30;8.17;;;;;;;8.52;90.41;96360.72;5098869;28;20802;-86
2020/12/21 16:50:31;;;;;;;8.90;6.30;;;;;;;8.44;90.91;96357.22;5098783;28;20464;-87
2020/12/21 16:52:58;;;;;;;9.90;7.20;;;;;;;8.40;91.53;96357.56;5097925;28;20407;-87
2020/12/21 16:55:24;;;;;;;11.27;7.00;;;;;;;8.35;91.36;96361.09;5098039;28;20884;-86
2020/12/21 16:57:50;;;;;;;11.47;7.10;;;;;;;8.26;92.16;96353.47;5097828;28;20485;-86
2020/12/21 17:00:18;;;;;;;10.60;8.20;;;;;;;8.25;92.92;96346.66;5097486;28;20462;-87
2020/12/21 17:02:45;;;;;;;10.97;8.20;;;;;;;8.28;92.52;96353.69;5098619;28;20496;-87
2020/12/21 17:05:11;;;;;;;10.97;7.50;;;;;;;8.31;91.90;96347.25;5096869;28;20441;-86
2020/12/21 17:07:37;;;;;;;14.33;8.53;;;;;;;8.36;91.47;96346.44;5099622;28;20440;-86
2020/12/21 17:10:04;;;;;;;12.33;7.67;;;;;;;8.28;91.34;96347.59;5098236;28;20411;-87
2020/12/21 17:12:30;;;;;;;11.17;7.47;;;;;;;8.32;91.69;96340.66;5097768;28;20421;-87
2020/12/21 17:14:56;;;;;;;8.10;6.40;;;;;;;8.34;91.24;96346.22;5097854;28;20476;-86
2020/12/21 17:17:24;;;;;;;14.90;8.00;;;;;;;8.39;91.26;96348.06;5097644;28;20527;-86
2020/12/21 17:19:51;;;;;;;9.83;7.40;;;;;;;8.38;91.34;96346.63;5097617;28;20517;-86
2020/12/21 17:22:18;;;;;;;12.57;8.80;;;;;;;8.34;91.31;96345.50;5096487;28;20452;-87
2020/12/21 17:24:44;;;;;;;10.80;7.80;;;;;;;8.44;91.21;96354.53;5099500;28;20504;-87
2020/12/21 17:27:11;;;;;;;10.17;7.30;;;;;;;8.46;90.94;96339.31;5104804;28;20470;-88
2020/12/21 17:29:37;;;;;;;12.87;7.90;;;;;;;8.34;91.22;96340.84;5100931;28;20451;-86
2020/12/21 17:32:03;;;;;;;11.90;8.10;;;;;;;8.34;91.48;96335.47;5102134;28;20427;-88
2020/12/21 17:34:31;;;;;;;10.80;7.87;;;;;;;8.42;91.15;96330.88;5098144;28;20847;-87
2020/12/21 17:36:58;;;;;;;12.47;8.00;;;;;;;8.43;91.51;96326.94;5097449;28;20440;-85
2020/12/21 17:39:24;;;;;;;11.30;7.67;;;;;;;8.49;91.31;96319.44;5098125;28;20928;-86
2020/12/21 17:41:53;;;;;;;13.93;7.80;;;;;;;8.49;91.57;96324.81;5102380;28;20463;-86
2020/12/21 17:44:20;;;;;;;11.00;6.43;;;;;;;8.51;91.61;96316.25;5118878;28;20395;-89
2020/12/21 17:46:46;;;;;;;10.90;6.50;;;;;;;8.36;91.89;96316.84;5121737;28;20424;-90
2020/12/21 17:49:12;;;;;;;10.50;7.77;;;;;;;8.37;92.17;96322.94;5122628;28;20425;-89
2020/12/21 17:51:41;;;;;;;15.27;8.23;;;;;;;8.46;92.04;96309.75;5112439;28;20472;-86
2020/12/21 17:54:08;;;;;;;10.03;6.83;;;;;;;8.37;92.30;96309.50;5100387;28;20448;-84
2020/12/21 17:56:34;;;;;;;11.20;7.67;;;;;;;8.45;92.04;96313.69;5099831;28;20882;-84
2020/12/21 17:59:01;;;;;;;14.50;7.13;;;;;;;8.53;91.59;96319.13;5100311;28;20441;-85
2020/12/21 18:01:27;;;;;;;11.53;7.60;;;;;;;8.49;91.78;96313.34;5098893;28;20462;-85
2020/12/21 18:03:53;;;;;;;10.63;7.10;;;;;;;8.50;91.62;96312.84;5099592;28;20436;-84
2020/12/21 18:06:20;;;;;;;10.70;8.13;;;;;;;8.42;92.32;96314.75;5099326;28;20488;-85
2020/12/21 18:08:47;;;;;;;11.20;7.00;;;;;;;8.43;92.59;96313.50;5099008;28;20430;-85
2020/12/21 18:11:14;;;;;;;9.37;7.37;;;;;;;8.45;92.79;96318.34;5098707;28;20555;-86
2020/12/21 18:13:40;;;;;;;11.87;7.33;;;;;;;8.35;93.15;96296.59;5098682;28;20403;-88
2020/12/21 18:16:07;;;;;;;10.43;7.40;;;;;;;8.39;93.14;96305.06;5100913;28;20477;-88
2020/12/21 18:18:33;;;;;;;8.37;6.90;;;;;;;8.48;93.30;96309.22;5100586;28;20430;-88
2020/12/21 18:20:59;;;;;;;10.97;7.53;;;;;;;8.42;93.19;96311.34;5101144;28;20541;-87
2020/12/21 18:23:26;;;;;;;10.17;7.47;;;;;;;8.45;93.81;96312.97;5098828;28;20399;-88
2020/12/21 18:25:55;;;;;;;12.20;9.00;;;;;;;8.39;93.88;96315.09;5099599;28;20598;-87
2020/12/21 18:28:22;;;;;;;12.77;8.07;;;;;;;8.33;94.64;96317.19;5098953;28;20460;-88
2020/12/21 18:30:48;;;;;;;15.80;9.57;;;;;;;8.41;94.91;96316.00;5100280;28;20465;-87
2020/12/21 18:33:15;;;;;;;11.40;7.93;;;;;;;8.44;95.44;96319.59;5100930;28;20435;-88
2020/12/21 18:35:41;;;;;;;14.33;9.30;;;;;;;8.38;95.52;96310.94;5100924;28;20404;-87
2020/12/21 18:38:07;;;;;;;13.70;9.73;;;;;;;8.34;95.95;96313.22;5100806;28;20941;-88
2020/12/21 18:40:34;;;;;;;19.60;10.17;;;;;;;8.36;95.71;96303.41;5104093;28;21002;-89
2020/12/21 18:43:01;;;;;;;11.10;8.23;;;;;;;8.34;95.96;96295.13;5100282;28;20510;-87
2020/12/21 18:45:27;;;;;;;14.30;8.57;;;;;;;8.38;95.63;96295.53;5098430;28;20471;-87
2020/12/21 18:47:54;;;;;;;13.53;7.63;;;;;;;8.31;95.90;96298.88;5098550;28;20399;-87
2020/12/21 18:50:20;;;;;;;12.73;7.80;;;;;;;8.41;95.56;96289.09;5098676;28;20453;-88
2020/12/21 18:52:46;;;;;;;8.67;7.20;;;;;;;8.42;95.22;96301.31;5101032;28;20396;-88
2020/12/21 18:55:13;;;;;;;10.60;6.60;;;;;;;8.37;95.20;96298.75;5097771;28;20503;-87
2020/12/21 18:57:39;;;;;;;8.97;6.30;;;;;;;8.35;95.59;96298.56;5098161;28;20427;-87
2020/12/21 19:00:09;;;;;;;12.77;7.77;;;;;;;8.37;95.45;96301.44;5098634;28;20532;-88
2020/12/21 19:02:35;;;;;;;12.27;7.70;;;;;;;8.41;95.39;96293.75;5100075;28;20411;-87
2020/12/21 19:05:02;;;;;;;16.20;8.37;;;;;;;8.44;95.25;96298.81;5098111;28;20867;-87
2020/12/21 19:07:28;;;;;;;16.10;8.30;;;;;;;8.49;94.66;96300.63;5097811;28;20911;-88
2020/12/21 19:09:55;;;;;;;12.83;6.83;;;;;;;8.43;94.85;96300.03;5097541;28;20407;-87
2020/12/21 19:12:21;;;;;;;12.33;7.57;;;;;;;8.46;94.97;96295.56;5097632;28;20399;-88
2020/12/21 19:14:47;;;;;;;8.77;7.10;;;;;;;8.38;95.94;96282.09;5098168;28;20429;-87
2020/12/21 19:17:15;;;;;;;10.37;6.83;;;;;;;8.36;96.19;96289.25;5097830;28;20547;-88
2020/12/21 19:19:41;;;;;;;8.13;6.10;;;;;;;8.32;96.25;96284.19;5097990;28;20832;-87
2020/12/21 19:22:07;;;;;;;11.00;7.20;;;;;;;8.25;97.02;96290.22;5096966;28;20481;-87
2020/12/21 19:24:34;;;;;;;9.70;6.93;;;;;;;8.29;97.40;96281.84;5097050;28;20935;-88
2020/12/21 19:27:00;;;;;;;9.93;6.77;;;;;;;8.26;97.60;96280.19;5098624;28;20480;-87
2020/12/21 19:29:28;;;;;;;9.27;6.40;;;;;;;8.26;97.25;96286.28;5097284;28;20509;-87
2020/12/21 19:31:54;;;;;;;10.87;7.20;;;;;;;8.31;97.54;96279.34;5097635;28;20463;-88
2020/12/21 19:34:21;;;;;;;9.10;5.10;;;;;;;8.25;97.13;96290.22;5097845;28;20407;-87
2020/12/21 19:36:48;;;;;;;10.27;5.70;;;;;;;8.26;97.87;96288.97;5097196;28;20433;-87
2020/12/21 19:39:14;;;;;;;6.43;4.73;;;;;;;8.22;97.87;96287.84;5096913;28;20423;-87
2020/12/21 19:41:41;;;;;;;8.10;5.70;;;;;;;8.30;97.51;96289.38;5096939;28;20541;-88
2020/12/21 19:44:08;;;;;;;6.93;5.00;;;;;;;8.22;98.25;96295.91;5096932;28;20419;-87
2020/12/21 19:46:38;;;;;;;6.63;5.27;;;;;;;8.26;98.04;96304.38;5097625;28;20483;-87
2020/12/21 19:49:05;;;;;;;6.40;4.27;;;;;;;8.30;97.65;96299.41;5097596;28;20894;-88
2020/12/21 19:51:32;;;;;;;9.00;5.23;;;;;;;8.28;97.72;96305.31;5098561;28;20476;-87
2020/12/21 19:53:59;;;;;;;10.37;4.83;;;;;;;8.27;97.95;96295.06;5098504;28;20456;-87
2020/12/21 19:56:26;;;;;;;8.20;5.40;;;;;;;8.32;97.69;96291.53;5098726;28;20395;-87
2020/12/21 19:58:52;;;;;;;8.63;5.67;;;;;;;8.31;97.94;96292.78;5098265;28;20399;-87
2020/12/21 20:01:19;;;;;;;10.23;5.77;;;;;;;8.33;97.94;96291.00;5099422;28;20572;-89
2020/12/21 20:03:45;;;;;;;8.57;5.87;;;;;;;8.31;98.18;96288.13;5097717;28;20424;-88
2020/12/21 20:06:11;;;;;;;9.97;5.97;;;;;;;8.26;98.37;96285.56;5096029;28;20419;-88
2020/12/21 20:08:39;;;;;;;9.70;6.30;;;;;;;8.28;98.19;96275.75;5095966;28;20937;-87
2020/12/21 20:11:07;;;;;;;10.27;6.17;;;;;;;8.31;98.05;96282.03;5097360;28;20848;-87
2020/12/21 20:13:34;;;;;;;9.50;6.00;;;;;;;8.31;98.80;96277.38;5096905;28;20436;-87
2020/12/21 20:16:00;;;;;;;8.60;7.07;;;;;;;8.30;98.79;96272.53;5096879;28;20432;-88
2020/12/21 20:18:27;;;;;;;11.50;6.50;;;;;;;8.27;99.04;96281.63;5098037;28;20884;-88
2020/12/21 20:20:53;;;;;;;10.10;7.10;;;;;;;8.26;99.39;96280.91;5097916;28;20476;-89
2020/12/21 20:23:19;;;;;;;10.20;7.00;;;;;;;8.27;99.34;96289.69;5107020;28;20499;-88
2020/12/21 20:25:47;;;;;;;9.57;7.10;;;;;;;8.25;99.52;96284.09;5119665;28;20429;-87
2020/12/21 20:28:14;;;;;;;9.57;7.07;;;;;;;8.34;99.90;96286.34;5119689;28;20478;-87
2020/12/21 20:30:40;;;;;;;9.77;6.47;;;;;;;8.23;100.00;96281.97;5109270;28;20459;-87
2020/12/21 20:33:07;;;;;;;9.50;7.10;;;;;;;8.32;99.96;96286.88;5100134;28;20418;-87
2020/12/21 20:35:33;;;;;;;9.50;6.50;;;;;;;8.34;99.77;96273.63;5101562;28;20465;-88
2020/12/21 20:37:59;;;;;;;9.27;7.00;;;;;;;8.35;100.00;96271.66;5115364;28;20391;-87
2020/12/21 20:40:26;;;;;;;10.00;6.27;;;;;;;8.34;99.73;96273.63;5101595;28;20901;-89
2020/12/21 20:42:56;;;;;;;11.53;7.27;;;;;;;8.26;100.00;96272.13;5113020;28;20410;-88
2020/12/21 20:45:24;;;;;;;10.53;7.33;;;;;;;8.16;99.95;96263.81;5118892;28;20429;-87
2020/12/21 20:47:51;;;;;;;10.60;7.17;;;;;;;8.23;100.00;96263.13;5118676;28;20461;-88
2020/12/21 20:50:17;;;;;;;8.90;6.50;;;;;;;8.24;100.00;96267.25;5110533;28;20845;-88
2020/12/21 20:52:44;;;;;;;9.40;7.00;;;;;;;8.31;100.00;96263.94;5095270;28;20490;-87
2020/12/21 20:55:11;;;;;;;7.97;6.50;;;;;;;8.34;99.49;96260.19;5095337;28;20754;-88
2020/12/21 20:57:38;;;;;;;12.73;7.73;;;;;;;8.29;99.74;96263.75;5095374;28;20456;-89
2020/12/21 21:00:06;;;;;;;11.13;6.90;;;;;;;8.31;99.78;96258.56;5095632;28;20541;-89
2020/12/21 21:02:34;;;;;;;10.07;6.50;;;;;;;8.37;99.75;96253.75;5095818;28;20509;-90
2020/12/21 21:05:00;;;;;;;9.50;6.20;;;;;;;8.41;99.80;96251.47;5095992;28;20514;-89
2020/12/21 21:07:26;;;;;;;9.20;6.87;;;;;;;8.44;99.99;96253.09;5096110;28;20515;-89
2020/12/21 21:09:53;;;;;;;13.10;7.77;;;;;;;8.35;100.00;96250.88;5095940;28;20904;-88
2020/12/21 21:12:19;;;;;;;9.07;6.00;;;;;;;8.37;100.00;96245.69;5095817;28;20480;-88
2020/12/21 21:14:46;;;;;;;9.70;6.17;;;;;;;8.38;100.00;96249.84;5095965;28;20448;-88
2020/12/21 21:17:13;;;;;;;7.37;5.63;;;;;;;8.44;99.82;96258.47;5095943;28;20448;-89
2020/12/21 21:19:39;;;;;;;9.73;7.20;;;;;;;8.40;100.00;96258.09;5095769;28;20498;-89
2020/12/21 21:22:05;;;;;;;10.83;6.47;;;;;;;8.38;100.00;96257.91;5100300;28;20547;-89
2020/12/21 21:24:32;;;;;;;10.80;6.00;;;;;;;8.48;100.00;96253.50;5100287;28;20422;-88